MOL Celebration — C6WW7 — position and weather

sailwx.info

Track history (hours):
 
Tides and Currents Weather Stations Pressure Air Temp Water Temp Dewpoint Dewpoint Depression Visibility Wind Speed Wind Dir Waves Ship Positions

MOL Celebration

Last reported at 2017-Jan-31 00:00 UTC. Time now 2017-Feb-20 22:22 UTC.
Position N 53°36' E 169°00'.
Warning: this ship's position is 20 days out of date.

Length 316 m; draft 11.8 m.

Type: Ship (hazmat cat D). MMSI: 309901000.

Wind from 210 at 25 knots

Barometer 1000.1 mb
Air temperature 2.0 ° C
Visibility: greater than 5.4 NM
Water temperature 3.0 ° C

Date/timePositionNaut miles runAvg speedWind from/ knotsBaromVisibWave heightAir tempDewpointWater temp
2017-Jan-31 00:00N 53°36' E 169°00'50320.1 210 / 251000.1 5.4 2.0 3.0
2017-Jan-29 23:00N 54°36' W 176°48'97920.0 320 / 20985.0 5.4 3.0 4.0
2017-Jan-27 22:00N 52°48' W 149°24'   270 / 10999.0 5.4 3.0 4.0
2017-Jan-24 17:30N 38°33' W 123°49'1718.1
2017-Jan-24 16:33N 38°21' W 123°34'1818.4
2017-Jan-24 15:34N 38°07' W 123°18'1818.0
2017-Jan-24 14:33N 37°55' W 123°01'1716.8
2017-Jan-24 13:34N 37°45' W 122°44'1111.0
2017-Jan-24 12:33N 37°48' W 122°30'9 8.7
2017-Jan-24 11:33N 37°49' W 122°19'0 0.3
2017-Jan-24 10:32N 37°49' W 122°20'0 0.0
2017-Jan-24 09:32N 37°49' W 122°20'0 0.0
2017-Jan-24 08:29N 37°49' W 122°20'0 0.0
2017-Jan-24 07:32N 37°49' W 122°20'0 0.0
2017-Jan-24 06:32N 37°49' W 122°20'0 0.0
2017-Jan-24 05:32N 37°49' W 122°20'0 0.0
2017-Jan-24 04:32N 37°49' W 122°20'0 0.0
2017-Jan-24 03:32N 37°49' W 122°20'0 0.0
2017-Jan-24 02:32N 37°49' W 122°20'0 0.0
2017-Jan-24 01:32N 37°49' W 122°20'0 0.0
2017-Jan-24 00:32N 37°49' W 122°20'0 0.0
2017-Jan-23 23:32N 37°49' W 122°20'0 0.0
2017-Jan-23 22:32N 37°49' W 122°20'0 0.0
2017-Jan-23 21:31N 37°49' W 122°20'0 0.0
2017-Jan-23 20:32N 37°49' W 122°20'0 0.0
2017-Jan-23 19:31N 37°49' W 122°20'0 0.0
2017-Jan-23 18:32N 37°49' W 122°20'0 0.0
2017-Jan-23 17:31N 37°49' W 122°20'0 0.0
2017-Jan-23 16:32N 37°49' W 122°20'0 0.0
2017-Jan-23 15:32N 37°49' W 122°20'0 0.0
2017-Jan-23 14:31N 37°49' W 122°20'2 1.9
2017-Jan-23 13:34N 37°48' W 122°22'1413.8
2017-Jan-23 12:33N 37°45' W 122°39'6 6.3
2017-Jan-23 11:33N 37°39' W 122°40'7 7.2
2017-Jan-23 10:33N 37°32' W 122°40'8 8.0
2017-Jan-23 09:33N 37°24' W 122°40'40 9.3
2017-Jan-23 05:14N 36°44' W 122°40'810.6
2017-Jan-23 04:27N 36°36' W 122°36'1210.3
2017-Jan-23 03:16N 36°24' W 122°32'810.8
2017-Jan-23 02:33N 36°17' W 122°28'1110.9
2017-Jan-23 01:33N 36°07' W 122°24'1110.6
2017-Jan-23 00:33N 35°57' W 122°20'1212.1
2017-Jan-22 23:33N 35°45' W 122°15'1212.3
2017-Jan-22 22:33N 35°36' W 122°06'1212.1
2017-Jan-22 21:32N 35°26' W 121°56'21011.0
2017-Jan-22 02:27N 33°38' W 118°17'5 1.0
2017-Jan-21 21:26N 33°42' W 118°13'0 0.0
2017-Jan-21 20:20N 33°42' W 118°13'0 0.0
2017-Jan-21 17:23N 33°42' W 118°13'0 0.1
2017-Jan-21 14:30N 33°42' W 118°13'3 3.0
2017-Jan-21 13:31N 33°43' W 118°16'  
Track history (hours):
 
Tides and Currents Weather Stations Pressure Air Temp Water Temp Dewpoint Dewpoint Depression Visibility Wind Speed Wind Dir Waves Ship Positions

MOL Celebration

Last reported at 2017-Jan-31 00:00 UTC. Time now 2017-Feb-20 22:22 UTC.
Position N 53°36' E 169°00'.
Warning: this ship's position is 20 days out of date.

Length 316 m; draft 11.8 m.

Type: Ship (hazmat cat D). MMSI: 309901000.

Wind from 210 at 25 knots

Barometer 1000.1 mb
Air temperature 2.0 ° C
Visibility: greater than 5.4 NM
Water temperature 3.0 ° C

Date/timePositionNaut miles runAvg speedWind from/ knotsBaromVisibWave heightAir tempDewpointWater temp
2017-Jan-31 00:00N 53°36' E 169°00'50320.1 210 / 251000.1 5.4 2.0 3.0
2017-Jan-29 23:00N 54°36' W 176°48'97920.0 320 / 20985.0 5.4 3.0 4.0
2017-Jan-27 22:00N 52°48' W 149°24'   270 / 10999.0 5.4 3.0 4.0
2017-Jan-24 17:30N 38°33' W 123°49'1718.1
2017-Jan-24 16:33N 38°21' W 123°34'1818.4
2017-Jan-24 15:34N 38°07' W 123°18'1818.0
2017-Jan-24 14:33N 37°55' W 123°01'1716.8
2017-Jan-24 13:34N 37°45' W 122°44'1111.0
2017-Jan-24 12:33N 37°48' W 122°30'9 8.7
2017-Jan-24 11:33N 37°49' W 122°19'0 0.3
2017-Jan-24 10:32N 37°49' W 122°20'0 0.0
2017-Jan-24 09:32N 37°49' W 122°20'0 0.0
2017-Jan-24 08:29N 37°49' W 122°20'0 0.0
2017-Jan-24 07:32N 37°49' W 122°20'0 0.0
2017-Jan-24 06:32N 37°49' W 122°20'0 0.0
2017-Jan-24 05:32N 37°49' W 122°20'0 0.0
2017-Jan-24 04:32N 37°49' W 122°20'0 0.0
2017-Jan-24 03:32N 37°49' W 122°20'0 0.0
2017-Jan-24 02:32N 37°49' W 122°20'0 0.0
2017-Jan-24 01:32N 37°49' W 122°20'0 0.0
2017-Jan-24 00:32N 37°49' W 122°20'0 0.0
2017-Jan-23 23:32N 37°49' W 122°20'0 0.0
2017-Jan-23 22:32N 37°49' W 122°20'0 0.0
2017-Jan-23 21:31N 37°49' W 122°20'0 0.0
2017-Jan-23 20:32N 37°49' W 122°20'0 0.0
2017-Jan-23 19:31N 37°49' W 122°20'0 0.0
2017-Jan-23 18:32N 37°49' W 122°20'0 0.0
2017-Jan-23 17:31N 37°49' W 122°20'0 0.0
2017-Jan-23 16:32N 37°49' W 122°20'0 0.0
2017-Jan-23 15:32N 37°49' W 122°20'0 0.0
2017-Jan-23 14:31N 37°49' W 122°20'2 1.9
2017-Jan-23 13:34N 37°48' W 122°22'1413.8
2017-Jan-23 12:33N 37°45' W 122°39'6 6.3
2017-Jan-23 11:33N 37°39' W 122°40'7 7.2
2017-Jan-23 10:33N 37°32' W 122°40'8 8.0
2017-Jan-23 09:33N 37°24' W 122°40'40 9.3
2017-Jan-23 05:14N 36°44' W 122°40'810.6
2017-Jan-23 04:27N 36°36' W 122°36'1210.3
2017-Jan-23 03:16N 36°24' W 122°32'810.8
2017-Jan-23 02:33N 36°17' W 122°28'1110.9
2017-Jan-23 01:33N 36°07' W 122°24'1110.6
2017-Jan-23 00:33N 35°57' W 122°20'1212.1
2017-Jan-22 23:33N 35°45' W 122°15'1212.3
2017-Jan-22 22:33N 35°36' W 122°06'1212.1
2017-Jan-22 21:32N 35°26' W 121°56'21011.0
2017-Jan-22 02:27N 33°38' W 118°17'5 1.0
2017-Jan-21 21:26N 33°42' W 118°13'0 0.0
2017-Jan-21 20:20N 33°42' W 118°13'0 0.0
2017-Jan-21 17:23N 33°42' W 118°13'0 0.1
2017-Jan-21 14:30N 33°42' W 118°13'3 3.0
2017-Jan-21 13:31N 33°43' W 118°16'  

Dump ship's entire track history